createdAt,value
2018-04-29T00:00:38.403Z,47.40
2018-04-29T00:03:06.881Z,51.10
2018-04-29T00:05:35.137Z,49.00
2018-04-29T00:08:03.419Z,49.00
2018-04-29T00:10:31.664Z,48.60
2018-04-29T00:12:59.913Z,49.00
2018-04-29T00:15:28.192Z,48.60
2018-04-29T00:17:57.201Z,51.90
2018-04-29T00:20:25.453Z,51.90
2018-04-29T00:22:54.908Z,51.40
2018-04-29T00:25:23.216Z,50.80
2018-04-29T00:27:51.460Z,52.20
2018-04-29T00:30:19.728Z,51.90
2018-04-29T00:32:48.049Z,55.80
2018-04-29T00:35:16.456Z,58.60
2018-04-29T00:37:45.492Z,54.40
2018-04-29T00:40:13.753Z,54.40
2018-04-29T00:42:42.013Z,54.90
2018-04-29T00:45:10.662Z,60.00
2018-04-29T00:47:38.914Z,65.80
2018-04-29T00:50:07.148Z,62.90
2018-04-29T00:52:36.369Z,68.50
2018-04-29T00:55:04.621Z,64.60
2018-04-29T00:57:33.104Z,61.10
2018-04-29T01:00:03.134Z,63.30
2018-04-29T01:02:31.369Z,63.20
2018-04-29T01:04:59.613Z,63.70
2018-04-29T01:07:28.218Z,62.00
2018-04-29T01:09:56.461Z,65.70
2018-04-29T01:12:24.708Z,65.10
2018-04-29T01:14:53.553Z,66.20
2018-04-29T01:17:21.800Z,67.70
2018-04-29T01:19:50.060Z,69.50
2018-04-29T01:22:18.336Z,73.70
2018-04-29T01:24:46.598Z,77.80
2018-04-29T01:27:14.923Z,71.40
2018-04-29T01:29:43.614Z,70.60
2018-04-29T01:32:11.863Z,71.40
2018-04-29T01:34:40.284Z,75.30
2018-04-29T01:37:08.699Z,79.60
2018-04-29T01:39:36.926Z,74.60
2018-04-29T01:42:05.172Z,82.60
2018-04-29T01:44:33.952Z,84.00
2018-04-29T01:47:02.208Z,79.90
2018-04-29T01:49:31.221Z,87.60
2018-04-29T01:52:00.385Z,87.90
2018-04-29T01:54:28.636Z,88.20
2018-04-29T01:56:56.885Z,81.80
2018-04-29T01:59:25.372Z,82.10
2018-04-29T02:01:53.621Z,84.70
2018-04-29T02:04:21.864Z,79.50
2018-04-29T02:06:50.141Z,82.10
2018-04-29T02:09:18.399Z,80.30
2018-04-29T02:11:46.644Z,85.70
2018-04-29T02:14:14.971Z,89.90
2018-04-29T02:16:43.211Z,90.20
2018-04-29T02:19:11.461Z,85.10
2018-04-29T02:21:40.496Z,93.60
2018-04-29T02:24:08.737Z,93.50
2018-04-29T02:26:36.980Z,90.00
2018-04-29T02:29:05.240Z,88.70
2018-04-29T02:31:33.485Z,85.80
2018-04-29T02:34:02.738Z,83.60
2018-04-29T02:36:31.300Z,92.80
2018-04-29T02:38:59.540Z,96.30
2018-04-29T02:41:28.380Z,95.40
2018-04-29T02:43:56.649Z,95.50
2018-04-29T02:46:24.893Z,92.40
2018-04-29T02:48:53.137Z,95.80
2018-04-29T02:51:21.404Z,94.90
2018-04-29T02:53:49.657Z,96.90
2018-04-29T02:56:17.901Z,96.30
2018-04-29T02:58:46.548Z,97.10
2018-04-29T03:01:15.132Z,92.50
2018-04-29T03:03:45.106Z,94.80
2018-04-29T03:06:13.373Z,94.80
2018-04-29T03:08:42.869Z,95.10
2018-04-29T03:11:11.109Z,92.40
2018-04-29T03:13:41.566Z,95.90
2018-04-29T03:16:09.804Z,95.90
2018-04-29T03:18:38.056Z,98.70
2018-04-29T03:21:06.515Z,94.80
2018-04-29T03:23:34.768Z,93.10
2018-04-29T03:26:03.022Z,96.10
2018-04-29T03:28:31.301Z,93.00
2018-04-29T03:31:00.322Z,92.90
2018-04-29T03:33:28.563Z,92.80
2018-04-29T03:35:56.837Z,93.20
2018-04-29T03:38:25.097Z,91.60
2018-04-29T03:40:53.340Z,95.10
2018-04-29T03:43:24.028Z,94.80
2018-04-29T03:45:53.052Z,96.10
2018-04-29T03:48:21.302Z,96.10
2018-04-29T03:50:49.577Z,95.50
2018-04-29T03:53:17.825Z,94.60
2018-04-29T03:55:46.072Z,91.80
2018-04-29T03:58:26.451Z,93.20
2018-04-29T04:01:06.549Z,93.50
2018-04-29T04:03:44.040Z,92.30
2018-04-29T04:06:12.289Z,94.80
2018-04-29T04:08:40.532Z,96.30
2018-04-29T04:11:08.796Z,94.30
2018-04-29T04:13:37.045Z,91.50
2018-04-29T04:16:05.288Z,96.20
2018-04-29T04:18:34.561Z,97.90
2018-04-29T04:21:02.820Z,99.90
2018-04-29T04:23:31.076Z,97.00
2018-04-29T04:25:59.348Z,96.20
2018-04-29T04:28:28.385Z,99.70
2018-04-29T04:30:56.616Z,99.60
2018-04-29T04:33:24.897Z,99.90
2018-04-29T04:35:53.149Z,99.90
2018-04-29T04:38:21.860Z,97.50
2018-04-29T04:40:51.208Z,97.40
2018-04-29T04:43:19.540Z,97.30
2018-04-29T04:45:48.559Z,96.20
2018-04-29T04:48:16.837Z,96.20
2018-04-29T04:50:45.176Z,96.40
2018-04-29T04:53:13.340Z,95.60
2018-04-29T04:55:41.626Z,95.00
2018-04-29T04:58:09.898Z,94.90
2018-04-29T05:00:38.128Z,95.60
2018-04-29T05:03:06.616Z,94.40
2018-04-29T05:05:35.257Z,94.40
2018-04-29T05:08:05.272Z,96.10
2018-04-29T05:10:34.317Z,95.90
2018-04-29T05:13:02.585Z,95.90
2018-04-29T05:15:30.824Z,94.60
2018-04-29T05:17:59.651Z,96.20
2018-04-29T05:20:27.952Z,96.90
2018-04-29T05:22:56.201Z,95.00
2018-04-29T05:25:25.327Z,93.40
2018-04-29T05:27:53.573Z,93.40
2018-04-29T05:30:21.816Z,93.60
2018-04-29T05:32:50.862Z,94.10
2018-04-29T05:35:19.124Z,94.10
2018-04-29T05:37:47.353Z,95.60
2018-04-29T05:40:15.624Z,95.30
2018-04-29T05:42:43.871Z,94.80
2018-04-29T05:45:13.033Z,95.90
2018-04-29T05:47:41.524Z,97.80
2018-04-29T05:50:10.367Z,96.60
2018-04-29T05:52:38.604Z,95.50
2018-04-29T05:55:06.877Z,97.50
2018-04-29T05:57:35.182Z,97.70
2018-04-29T06:00:03.429Z,95.60
2018-04-29T06:02:31.697Z,97.90
2018-04-29T06:04:59.937Z,96.00
2018-04-29T06:07:28.428Z,97.70
2018-04-29T06:09:58.245Z,97.00
2018-04-29T06:12:26.480Z,96.80
2018-04-29T06:14:54.764Z,96.30
2018-04-29T06:17:23.073Z,95.80
2018-04-29T06:19:51.338Z,95.80
2018-04-29T06:22:20.361Z,94.80
2018-04-29T06:24:49.541Z,94.70
2018-04-29T06:27:18.557Z,97.90
2018-04-29T06:29:46.808Z,97.80
2018-04-29T06:32:15.640Z,96.10
2018-04-29T06:34:43.892Z,95.00
2018-04-29T06:37:12.136Z,95.30
2018-04-29T06:39:40.406Z,95.80
2018-04-29T06:42:08.815Z,95.10
2018-04-29T06:44:37.805Z,96.00
2018-04-29T06:47:06.851Z,95.60
2018-04-29T06:49:35.097Z,95.60
2018-04-29T06:52:03.345Z,95.90
2018-04-29T06:54:31.975Z,95.20
2018-04-29T06:57:00.229Z,95.10
2018-04-29T06:59:28.476Z,94.70
2018-04-29T07:01:56.748Z,94.30
2018-04-29T07:04:24.994Z,94.00
2018-04-29T07:06:54.344Z,94.40
2018-04-29T07:09:22.847Z,92.80
2018-04-29T07:11:51.093Z,95.30
2018-04-29T07:14:19.335Z,94.80
2018-04-29T07:16:48.527Z,94.90
2018-04-29T07:19:16.896Z,94.60
2018-04-29T07:21:45.153Z,95.00
2018-04-29T07:24:13.428Z,95.70
2018-04-29T07:26:42.687Z,96.60
2018-04-29T07:29:11.067Z,97.80
2018-04-29T07:31:39.341Z,97.60
2018-04-29T07:34:08.854Z,97.40
2018-04-29T07:36:37.154Z,97.70
2018-04-29T07:39:06.501Z,98.50
2018-04-29T07:41:34.749Z,98.40
2018-04-29T07:44:03.172Z,98.70
2018-04-29T07:46:31.625Z,98.90
2018-04-29T07:48:59.959Z,98.20
2018-04-29T07:51:28.968Z,97.10
2018-04-29T07:53:58.009Z,97.60
2018-04-29T07:56:26.253Z,97.60
2018-04-29T07:58:54.686Z,96.70
2018-04-29T08:01:23.137Z,96.50
2018-04-29T08:03:51.381Z,97.90
2018-04-29T08:06:19.633Z,97.70
2018-04-29T08:08:47.919Z,97.40
2018-04-29T08:11:17.209Z,97.20
2018-04-29T08:13:45.565Z,97.10
2018-04-29T08:16:13.973Z,98.60
2018-04-29T08:18:42.989Z,96.50
2018-04-29T08:21:11.316Z,96.50
2018-04-29T08:23:39.996Z,96.70
2018-04-29T08:26:08.228Z,96.90
2018-04-29T08:28:36.518Z,97.60
2018-04-29T08:31:04.865Z,96.90
2018-04-29T08:33:33.880Z,96.70
2018-04-29T08:36:02.206Z,96.70
2018-04-29T08:38:30.972Z,97.80
2018-04-29T08:41:00.200Z,96.80
2018-04-29T08:43:28.573Z,97.20
2018-04-29T08:45:57.487Z,96.50
2018-04-29T08:48:26.150Z,96.80
2018-04-29T08:50:54.324Z,95.90
2018-04-29T08:53:23.665Z,95.80
2018-04-29T08:55:52.096Z,95.50
2018-04-29T08:58:20.337Z,94.70
2018-04-29T09:00:48.596Z,94.40
2018-04-29T09:03:16.928Z,94.70
2018-04-29T09:05:45.087Z,95.30
2018-04-29T09:08:13.428Z,93.30
2018-04-29T09:10:41.691Z,92.10
2018-04-29T09:13:11.469Z,91.50
2018-04-29T09:15:40.464Z,91.20
2018-04-29T09:18:09.265Z,91.10
2018-04-29T09:20:37.629Z,90.90
2018-04-29T09:23:06.174Z,90.80
2018-04-29T09:25:34.402Z,91.40
2018-04-29T09:28:02.780Z,91.00
2018-04-29T09:30:31.540Z,91.00
2018-04-29T09:32:59.832Z,91.00
2018-04-29T09:35:28.255Z,90.80
2018-04-29T09:37:56.512Z,91.20
2018-04-29T09:40:25.022Z,90.80
2018-04-29T09:42:54.033Z,90.70
2018-04-29T09:45:25.444Z,90.70
2018-04-29T09:47:53.801Z,91.00
2018-04-29T09:50:22.052Z,89.40
2018-04-29T09:52:50.636Z,88.40
2018-04-29T09:55:19.484Z,89.10
2018-04-29T09:57:47.722Z,88.80
2018-04-29T10:00:15.988Z,89.40
2018-04-29T10:02:47.347Z,87.00
2018-04-29T10:05:16.689Z,86.20
2018-04-29T10:07:44.948Z,87.10
2018-04-29T10:10:13.567Z,87.20
2018-04-29T10:12:42.568Z,87.60
2018-04-29T10:15:11.065Z,87.40
2018-04-29T10:17:39.305Z,85.10
2018-04-29T10:20:08.320Z,84.80
2018-04-29T10:22:36.631Z,84.60
2018-04-29T10:25:05.068Z,85.20
2018-04-29T10:27:34.074Z,84.90
2018-04-29T10:30:02.360Z,84.80
2018-04-29T10:32:30.658Z,84.50
2018-04-29T10:34:58.845Z,84.10
2018-04-29T10:37:27.297Z,84.20
2018-04-29T10:39:55.541Z,84.30
2018-04-29T10:42:23.808Z,84.50
2018-04-29T10:44:52.078Z,84.60
2018-04-29T10:47:21.085Z,81.40
2018-04-29T10:49:50.107Z,81.90
2018-04-29T10:52:18.420Z,81.70
2018-04-29T10:54:46.661Z,82.10
2018-04-29T10:57:14.920Z,75.70
2018-04-29T10:59:43.636Z,77.60
2018-04-29T11:02:11.937Z,69.40
2018-04-29T11:04:40.186Z,69.30
2018-04-29T11:07:09.506Z,65.10
2018-04-29T11:09:37.728Z,55.40
2018-04-29T11:12:06.740Z,51.90
2018-04-29T11:14:35.016Z,51.70
2018-04-29T11:17:03.484Z,56.30
2018-04-29T11:19:32.503Z,46.90
2018-04-29T11:22:01.202Z,47.10
2018-04-29T11:24:29.440Z,46.80
2018-04-29T11:26:57.688Z,47.10
2018-04-29T11:29:25.975Z,46.40
2018-04-29T11:31:54.979Z,46.80
2018-04-29T11:34:24.040Z,42.40
2018-04-29T11:36:52.308Z,42.40
2018-04-29T11:39:20.566Z,45.20
2018-04-29T11:41:48.807Z,40.40
2018-04-29T11:44:18.149Z,40.90
2018-04-29T11:46:46.396Z,40.80
2018-04-29T11:49:14.660Z,39.80
2018-04-29T11:51:42.925Z,38.00
2018-04-29T11:54:11.937Z,41.10
2018-04-29T11:56:40.180Z,41.10
2018-04-29T11:59:08.446Z,36.20
2018-04-29T12:01:36.688Z,37.80
2018-04-29T12:04:04.929Z,31.20
2018-04-29T12:06:33.568Z,35.90
2018-04-29T12:09:01.804Z,33.20
2018-04-29T12:11:30.057Z,34.10
2018-04-29T12:13:58.329Z,33.60
2018-04-29T12:16:27.035Z,34.10
2018-04-29T12:18:56.945Z,34.90
2018-04-29T12:21:26.557Z,33.60
2018-04-29T12:23:55.576Z,29.70
2018-04-29T12:26:23.893Z,29.50
2018-04-29T12:28:52.651Z,31.50
2018-04-29T12:31:20.896Z,30.10
2018-04-29T12:33:49.141Z,30.00
2018-04-29T12:36:17.413Z,30.90
2018-04-29T12:38:45.692Z,32.10
2018-04-29T12:41:14.412Z,32.10
2018-04-29T12:43:42.780Z,31.30
2018-04-29T12:46:11.029Z,28.90
2018-04-29T12:48:39.268Z,30.70
2018-04-29T12:51:07.725Z,27.50
2018-04-29T12:53:36.736Z,29.40
2018-04-29T12:56:04.985Z,29.40
2018-04-29T12:58:33.261Z,27.50
2018-04-29T13:01:01.517Z,28.50
2018-04-29T13:03:29.760Z,28.60
2018-04-29T13:05:58.028Z,27.80
2018-04-29T13:08:26.385Z,27.80
2018-04-29T13:10:54.632Z,28.50
2018-04-29T13:13:22.967Z,29.10
2018-04-29T13:15:51.207Z,29.60
2018-04-29T13:18:20.225Z,31.90
2018-04-29T13:20:48.497Z,31.90
2018-04-29T13:23:16.748Z,29.70
2018-04-29T13:25:45.005Z,30.00
2018-04-29T13:28:13.348Z,29.00
2018-04-29T13:30:41.520Z,29.20
2018-04-29T13:33:09.765Z,29.60
2018-04-29T13:35:38.663Z,28.80
2018-04-29T13:38:07.084Z,30.10
2018-04-29T13:40:35.668Z,28.40
2018-04-29T13:43:03.916Z,27.30
2018-04-29T13:45:32.328Z,28.40
2018-04-29T13:48:00.573Z,27.40
2018-04-29T13:50:28.948Z,27.10
2018-04-29T13:52:57.197Z,26.60
2018-04-29T13:55:26.216Z,26.30
2018-04-29T13:57:54.928Z,26.30
2018-04-29T14:00:23.173Z,26.20
2018-04-29T14:02:51.412Z,26.70
2018-04-29T14:05:19.684Z,25.70
2018-04-29T14:07:47.935Z,25.20
2018-04-29T14:10:16.201Z,25.50
2018-04-29T14:12:45.256Z,25.30
2018-04-29T14:15:13.608Z,25.50
2018-04-29T14:17:41.858Z,25.60
2018-04-29T14:20:10.336Z,23.70
2018-04-29T14:22:38.816Z,23.90
2018-04-29T14:25:07.064Z,24.30
2018-04-29T14:27:35.324Z,24.20
2018-04-29T14:30:03.586Z,23.50
2018-04-29T14:32:31.840Z,23.60
2018-04-29T14:35:00.186Z,23.80
2018-04-29T14:37:28.603Z,23.30
2018-04-29T14:39:56.997Z,23.20
2018-04-29T14:42:25.484Z,24.00
2018-04-29T14:44:57.737Z,23.60
2018-04-29T14:47:26.029Z,23.00
2018-04-29T14:49:54.279Z,23.10
2018-04-29T14:52:22.949Z,23.50
2018-04-29T14:54:51.208Z,22.60
2018-04-29T14:57:19.640Z,22.60
2018-04-29T14:59:47.893Z,23.00
2018-04-29T15:02:16.279Z,22.30
2018-04-29T15:04:44.525Z,22.60
2018-04-29T15:07:12.779Z,22.80
2018-04-29T15:09:41.255Z,23.50
2018-04-29T15:12:10.262Z,23.80
2018-04-29T15:14:39.287Z,23.40
2018-04-29T15:17:07.604Z,23.40
2018-04-29T15:19:54.477Z,22.20
2018-04-29T15:22:22.819Z,20.90
2018-04-29T15:24:53.020Z,21.30
2018-04-29T15:27:21.486Z,21.20
2018-04-29T15:29:49.743Z,21.20
2018-04-29T15:32:18.331Z,21.70
2018-04-29T15:34:46.889Z,20.40
2018-04-29T15:37:15.224Z,21.20
2018-04-29T15:39:44.245Z,20.70
2018-04-29T15:42:12.500Z,20.60
2018-04-29T15:44:41.353Z,19.70
2018-04-29T15:47:09.576Z,20.30
2018-04-29T15:49:37.918Z,20.30
2018-04-29T15:52:06.936Z,20.90
2018-04-29T15:54:35.391Z,20.90
2018-04-29T15:57:03.773Z,19.90
2018-04-29T15:59:32.036Z,19.30
2018-04-29T16:02:00.725Z,20.80
2018-04-29T16:04:28.950Z,21.00
2018-04-29T16:06:58.405Z,20.00
2018-04-29T16:09:26.897Z,20.00
2018-04-29T16:11:55.145Z,20.30
2018-04-29T16:14:24.602Z,20.00
2018-04-29T16:16:54.548Z,20.50
2018-04-29T16:19:22.797Z,20.40
2018-04-29T16:21:51.108Z,20.70
2018-04-29T16:24:19.929Z,21.10
2018-04-29T16:26:48.172Z,20.80
2018-04-29T16:29:16.764Z,20.70
2018-04-29T16:31:45.006Z,21.20
2018-04-29T16:34:13.646Z,21.40
2018-04-29T16:36:41.908Z,21.50
2018-04-29T16:39:10.404Z,21.50
2018-04-29T16:41:38.629Z,21.40
2018-04-29T16:44:07.661Z,21.30
2018-04-29T16:46:35.968Z,21.20
2018-04-29T16:49:04.956Z,21.10
2018-04-29T16:51:33.647Z,21.20
2018-04-29T16:54:02.012Z,21.90
2018-04-29T16:56:30.402Z,21.70
2018-04-29T16:58:58.812Z,21.40
2018-04-29T17:01:28.679Z,22.60
2018-04-29T17:03:56.932Z,22.60
2018-04-29T17:06:25.339Z,23.90
2018-04-29T17:08:53.565Z,23.60
2018-04-29T17:11:22.583Z,22.80
2018-04-29T17:13:50.977Z,22.80
2018-04-29T17:16:19.224Z,22.10
2018-04-29T17:18:47.843Z,22.00
2018-04-29T17:21:16.099Z,22.50
2018-04-29T17:23:44.350Z,22.90
2018-04-29T17:26:12.855Z,23.30
2018-04-29T17:28:41.246Z,24.10
2018-04-29T17:31:09.596Z,24.50
2018-04-29T17:33:37.920Z,25.20
2018-04-29T17:36:07.000Z,25.40
2018-04-29T17:38:35.360Z,26.60
2018-04-29T17:41:03.613Z,26.90
2018-04-29T17:43:31.893Z,27.20
2018-04-29T17:46:01.439Z,28.00
2018-04-29T17:48:29.750Z,27.90
2018-04-29T17:50:58.144Z,27.80
2018-04-29T17:53:26.383Z,28.40
2018-04-29T17:55:54.628Z,28.50
2018-04-29T17:58:23.343Z,28.60
2018-04-29T18:00:51.592Z,28.70
2018-04-29T18:03:19.843Z,28.90
2018-04-29T18:05:48.144Z,29.10
2018-04-29T18:08:16.487Z,29.50
2018-04-29T18:10:44.860Z,29.70
2018-04-29T18:13:13.128Z,29.80
2018-04-29T18:15:41.496Z,29.90
2018-04-29T18:18:09.721Z,30.50
2018-04-29T18:20:39.296Z,30.20
2018-04-29T18:23:07.545Z,30.30
2018-04-29T18:25:36.307Z,30.30
2018-04-29T18:28:04.585Z,30.70
2018-04-29T18:30:32.833Z,31.00
2018-04-29T18:33:01.845Z,30.60
2018-04-29T18:35:30.193Z,30.60
2018-04-29T18:37:58.440Z,30.90
2018-04-29T18:40:26.682Z,31.70
2018-04-29T18:42:56.946Z,31.00
2018-04-29T18:45:25.183Z,31.00
2018-04-29T18:47:53.444Z,31.40
2018-04-29T18:50:21.744Z,31.90
2018-04-29T18:52:50.977Z,31.80
2018-04-29T18:55:19.352Z,31.80
2018-04-29T18:57:47.772Z,32.10
2018-04-29T19:00:16.779Z,32.90
2018-04-29T19:02:45.308Z,33.00
2018-04-29T19:05:13.878Z,34.30
2018-04-29T19:07:42.137Z,34.20
2018-04-29T19:10:10.385Z,33.70
2018-04-29T19:12:38.659Z,34.20
2018-04-29T19:15:07.736Z,35.60
2018-04-29T19:17:36.308Z,35.60
2018-04-29T19:20:04.628Z,34.50
2018-04-29T19:22:32.863Z,35.00
2018-04-29T19:25:01.101Z,35.40
2018-04-29T19:27:29.958Z,35.70
2018-04-29T19:29:58.977Z,36.10
2018-04-29T19:32:27.223Z,36.10
2018-04-29T19:34:56.256Z,36.50
2018-04-29T19:37:24.504Z,36.50
2018-04-29T19:39:53.027Z,36.90
2018-04-29T19:42:21.293Z,37.20
2018-04-29T19:44:49.545Z,37.00
2018-04-29T19:47:17.973Z,38.40
2018-04-29T19:49:46.569Z,38.30
2018-04-29T19:52:14.793Z,38.80
2018-04-29T19:54:43.305Z,38.90
2018-04-29T19:57:12.007Z,38.40
2018-04-29T19:59:40.248Z,40.10
2018-04-29T20:02:08.512Z,40.20
2018-04-29T20:04:36.780Z,40.60
2018-04-29T20:07:05.798Z,41.10
2018-04-29T20:09:34.307Z,41.10
2018-04-29T20:12:02.872Z,40.60
2018-04-29T20:14:31.141Z,40.00
2018-04-29T20:16:59.385Z,40.50
2018-04-29T20:19:28.428Z,40.40
2018-04-29T20:21:56.672Z,40.30
2018-04-29T20:24:25.002Z,40.60
2018-04-29T20:26:53.281Z,40.80
2018-04-29T20:29:21.804Z,40.30
2018-04-29T20:31:50.817Z,41.00
2018-04-29T20:34:19.907Z,40.40
2018-04-29T20:36:48.165Z,41.00
2018-04-29T20:39:17.176Z,40.80
2018-04-29T20:41:45.457Z,40.80
2018-04-29T20:44:13.712Z,40.50
2018-04-29T20:46:42.804Z,41.30
2018-04-29T20:49:11.000Z,41.30
2018-04-29T20:51:39.255Z,40.60
2018-04-29T20:54:07.505Z,42.20
2018-04-29T20:56:37.076Z,41.70
2018-04-29T20:59:05.336Z,41.60
2018-04-29T21:01:33.593Z,42.30
2018-04-29T21:04:02.744Z,41.70
2018-04-29T21:06:31.297Z,41.70
2018-04-29T21:08:59.549Z,42.80
2018-04-29T21:11:28.589Z,42.50
2018-04-29T21:13:56.845Z,42.50
2018-04-29T21:16:25.088Z,41.80
2018-04-29T21:18:53.720Z,41.90
2018-04-29T21:21:21.980Z,43.20
2018-04-29T21:23:50.232Z,42.90
2018-04-29T21:26:19.932Z,42.70
2018-04-29T21:28:48.188Z,42.70
2018-04-29T21:31:16.908Z,42.30
2018-04-29T21:33:45.176Z,41.90
2018-04-29T21:36:14.201Z,42.10
2018-04-29T21:38:42.556Z,42.00
2018-04-29T21:41:11.908Z,42.20
2018-04-29T21:43:40.161Z,42.10
2018-04-29T21:46:08.412Z,42.20
2018-04-29T21:48:37.458Z,41.80
2018-04-29T21:51:07.019Z,41.80
2018-04-29T21:53:35.251Z,42.30
2018-04-29T21:56:03.522Z,42.30
2018-04-29T21:58:32.036Z,42.30
2018-04-29T22:01:01.065Z,43.00
2018-04-29T22:03:29.772Z,43.00
2018-04-29T22:05:58.013Z,42.50
2018-04-29T22:08:26.260Z,42.30
2018-04-29T22:10:54.524Z,42.40
2018-04-29T22:13:22.788Z,42.50
2018-04-29T22:15:52.477Z,43.20
2018-04-29T22:18:20.744Z,43.20
2018-04-29T22:20:48.999Z,43.50
2018-04-29T22:23:18.635Z,42.70
2018-04-29T22:25:47.090Z,42.70
2018-04-29T22:28:16.107Z,43.40
2018-04-29T22:30:44.357Z,43.40
2018-04-29T22:33:13.732Z,44.50
2018-04-29T22:35:41.980Z,44.50
2018-04-29T22:38:10.241Z,43.80
2018-04-29T22:40:38.515Z,44.60
2018-04-29T22:43:06.764Z,45.40
2018-04-29T22:45:35.017Z,46.20
2018-04-29T22:48:03.360Z,45.30
2018-04-29T22:50:31.901Z,45.00
2018-04-29T22:53:00.144Z,45.10
2018-04-29T22:55:28.553Z,45.10
2018-04-29T22:57:56.784Z,45.70
2018-04-29T23:00:25.029Z,45.40
2018-04-29T23:02:53.308Z,46.40
2018-04-29T23:05:21.664Z,46.10
2018-04-29T23:07:51.164Z,46.10
2018-04-29T23:10:20.008Z,46.10
2018-04-29T23:12:49.329Z,46.50
2018-04-29T23:15:17.591Z,45.90
2018-04-29T23:17:46.016Z,46.50
2018-04-29T23:20:15.037Z,46.40
2018-04-29T23:22:43.293Z,46.30
2018-04-29T23:25:11.559Z,47.40
2018-04-29T23:27:39.816Z,47.50
2018-04-29T23:30:08.061Z,47.20
2018-04-29T23:32:36.717Z,47.70
2018-04-29T23:35:05.294Z,48.10
2018-04-29T23:37:34.315Z,48.00
2018-04-29T23:40:02.581Z,47.90
2018-04-29T23:42:30.837Z,47.50
2018-04-29T23:44:59.436Z,47.50
2018-04-29T23:47:27.778Z,47.20
2018-04-29T23:49:55.948Z,47.40
2018-04-29T23:52:24.214Z,46.90
2018-04-29T23:54:52.534Z,46.70
2018-04-29T23:57:20.775Z,46.80
2018-04-29T23:59:49.792Z,47.00
